Kirksville Regional Airport Kirksville US
ICAO: KIRK
IATA: IRK
Category: Medium
Scheduled Services: Yes

Elevation: 966 ft
TransAlt. 18000 ft.

Airport Communications:
ASOS:121.125
KANSAS CITY CNTR:132.6
COLUMBIA RDO:122.2
CTAF/UNICOM:122.8

KIRK Zoom In..

Runways:

(A) RW 09 length 1370 ft width 100 ft
---- / hdg 88

(B) RW 18 length 6005 ft width 100 ft
---- / hdg 177

(C) RW 27 length 1370 ft width 100 ft
---- / hdg 268

(D) RW 36 length 6005 ft width 100 ft
ILS 111.50 / hdg 357

Location; KIRK
Day. 23 / Time. 21.55 Zulu
* Altimeter: 30.16
* Temperature: -01° c. -30.2°f.
* Wind from: 280° Speed 12 kn with Gusts up to 18 kn.
Dewpoint: -04° c.
Visibility: 10 Statute Miles.
Clouds: Overcast 1700 ft.

KIRK 232155Z AUTO 28012G18KT 10SM OVC017 M01/M04 A3016 RMK AO2 SLP228 T10111039


Wind From 280°
Speed 12 kn.

YouTube Music Video
 
jpsmedia.com for Web Design  worldairports.se 2018   terms of use